Aérodrome :
LOGIN :

S'inscrire | Disclaimer

   EN    FR    IT 

 










Légende :    VFR   VFR Marginal   IFR   IFR Intensif   IFR Très Intensif
Visi : 
Plafond : 
>= 8 km
>= 3000ft
5 à 8 km
1000 à 3000 ft
1500m à 5 km
500 à 1000 ft
800 à 1500m
200 à 500 ft
< 800m
< 200 ft
Symboles :   Orages  Brouillard  Fortes neiges  Fortes précipitations  Vent > 20 kt
SIGMETs :   Divers  Orages  Givrage  Turbulence  Onde Orograph.  Cendres Volcan.







- Altitude de l'aérodrome : 978 ft
- Code IATA : LNZ


LOWL - Linz

DERNIER METAR :
  • 122320Z AUTO VRB01KT 9999 FEW030 SCT034 BKN044 M00/M01 Q1020

METARs EXPIRÉS :
  • 122250Z AUTO 34003KT 9999 FEW020 SCT028 BKN034 M00/M01 Q1021
  • 122220Z AUTO 30003KT 9999 FEW022 BKN032 M00/M01 Q1021
  • 122150Z AUTO 30003KT 7000 FEW030 SCT044 BKN080 M00/M01 Q1021 R08/29//95 NOSIG
  • 122120Z AUTO 33004KT 6000 FEW030 BKN042 00/M00 Q1021 R08/29//95 NOSIG
  • 122050Z AUTO 32004KT 9999 FEW044 BKN050 00/M01 Q1021 R08/29//95 NOSIG

TAF TAF LOWL
Valide du 13 à 00h jusqu'au 14 à 00h UTC


122315Z 1300/1324 09005KT 8000 BKN008 TX01/1311Z TNM02/1400Z
BECMG 1305/1307 09012KT BKN012
TEMPO 1311/1316 SCT015
BECMG 1314/1316 09006KT
Pas de NOTAMs connus pour ce terrain.



MET'MAP, la Météo Aéronautique d'un coup d'oeil ! - Copyright ORBIFLY Décembre 2007 - Disclaimer

ORBIFLY MET'MAP TEAM :

Programmation & Développement : Alexandra Zaïnal
Conception & Développement : Baudouin d'Aumeries
Co-Programmation & Développement : Marc-Olivier Méhu
Soutien technique & logistique : Manuel Goepfert

Contact : metmap@orbifly.com




SOURCES & CREDITS :

   NOAA